sensor_id;sensor_type;location;lat;lon;timestamp;pressure;altitude;pressure_sealevel;temperature;humidity
46464;BME280;32161;48.148;-1.554;2023-05-20T00:01:54;101654.97;;;12.27;72.02
46464;BME280;32161;48.148;-1.554;2023-05-20T00:04:23;101663.81;;;12.23;72.76
46464;BME280;32161;48.148;-1.554;2023-05-20T00:06:51;101661.28;;;12.21;72.76
46464;BME280;32161;48.148;-1.554;2023-05-20T00:09:19;101656.72;;;12.15;72.63
46464;BME280;32161;48.148;-1.554;2023-05-20T00:11:47;101657.59;;;12.09;73.00
46464;BME280;32161;48.148;-1.554;2023-05-20T00:14:14;101650.69;;;12.06;73.00
46464;BME280;32161;48.148;-1.554;2023-05-20T00:16:42;101651.97;;;12.04;73.46
46464;BME280;32161;48.148;-1.554;2023-05-20T00:19:10;101650.72;;;12.00;73.10
46464;BME280;32161;48.148;-1.554;2023-05-20T00:21:38;101652.84;;;11.91;73.45
46464;BME280;32161;48.148;-1.554;2023-05-20T00:24:07;101647.63;;;11.89;73.94
46464;BME280;32161;48.148;-1.554;2023-05-20T00:26:34;101645.97;;;11.88;74.10
46464;BME280;32161;48.148;-1.554;2023-05-20T00:29:02;101646.78;;;11.89;73.71
46464;BME280;32161;48.148;-1.554;2023-05-20T00:31:29;101643.88;;;11.84;74.37
46464;BME280;32161;48.148;-1.554;2023-05-20T00:33:57;101644.72;;;11.84;73.91
46464;BME280;32161;48.148;-1.554;2023-05-20T00:36:24;101649.94;;;11.86;74.29
46464;BME280;32161;48.148;-1.554;2023-05-20T00:38:53;101653.31;;;11.88;74.14
46464;BME280;32161;48.148;-1.554;2023-05-20T00:41:21;101645.13;;;11.81;74.17
46464;BME280;32161;48.148;-1.554;2023-05-20T00:43:52;101651.63;;;11.80;74.53
46464;BME280;32161;48.148;-1.554;2023-05-20T00:46:20;101660.91;;;11.66;75.21
46464;BME280;32161;48.148;-1.554;2023-05-20T00:48:49;101650.00;;;11.66;74.80
46464;BME280;32161;48.148;-1.554;2023-05-20T00:51:18;101646.06;;;11.55;75.00
46464;BME280;32161;48.148;-1.554;2023-05-20T00:53:46;101638.06;;;11.67;75.49
46464;BME280;32161;48.148;-1.554;2023-05-20T00:56:15;101637.88;;;11.55;75.23
46464;BME280;32161;48.148;-1.554;2023-05-20T00:58:43;101634.31;;;11.55;75.64
46464;BME280;32161;48.148;-1.554;2023-05-20T01:01:11;101636.41;;;11.53;76.04
46464;BME280;32161;48.148;-1.554;2023-05-20T01:03:39;101631.19;;;11.58;75.82
46464;BME280;32161;48.148;-1.554;2023-05-20T01:06:06;101622.38;;;11.56;76.04
46464;BME280;32161;48.148;-1.554;2023-05-20T01:08:34;101615.94;;;11.43;76.29
46464;BME280;32161;48.148;-1.554;2023-05-20T01:11:05;101606.50;;;11.46;76.46
46464;BME280;32161;48.148;-1.554;2023-05-20T01:13:42;101605.69;;;11.45;76.66
46464;BME280;32161;48.148;-1.554;2023-05-20T01:16:14;101602.31;;;11.50;76.66
46464;BME280;32161;48.148;-1.554;2023-05-20T01:18:45;101599.78;;;11.48;76.58
46464;BME280;32161;48.148;-1.554;2023-05-20T01:21:15;101600.66;;;11.42;77.19
46464;BME280;32161;48.148;-1.554;2023-05-20T01:23:44;101595.41;;;11.47;76.91
46464;BME280;32161;48.148;-1.554;2023-05-20T01:26:12;101594.16;;;11.43;76.91
46464;BME280;32161;48.148;-1.554;2023-05-20T01:28:41;101593.97;;;11.38;76.90
46464;BME280;32161;48.148;-1.554;2023-05-20T01:31:14;101588.94;;;11.42;77.19
46464;BME280;32161;48.148;-1.554;2023-05-20T01:33:46;101586.00;;;11.43;77.26
46464;BME280;32161;48.148;-1.554;2023-05-20T01:36:19;101586.66;;;11.39;77.22
46464;BME280;32161;48.148;-1.554;2023-05-20T01:38:49;101592.50;;;11.42;77.07
46464;BME280;32161;48.148;-1.554;2023-05-20T01:41:17;101588.28;;;11.46;77.19
46464;BME280;32161;48.148;-1.554;2023-05-20T01:43:45;101587.47;;;11.39;77.92
46464;BME280;32161;48.148;-1.554;2023-05-20T01:46:14;101593.75;;;11.33;77.70
46464;BME280;32161;48.148;-1.554;2023-05-20T01:48:42;101589.38;;;11.25;78.05
46464;BME280;32161;48.148;-1.554;2023-05-20T01:51:10;101589.81;;;11.29;78.05
46464;BME280;32161;48.148;-1.554;2023-05-20T01:53:37;101581.63;;;11.29;78.35
46464;BME280;32161;48.148;-1.554;2023-05-20T01:56:07;101585.41;;;11.28;78.04
46464;BME280;32161;48.148;-1.554;2023-05-20T01:58:35;101573.47;;;11.29;78.44
46464;BME280;32161;48.148;-1.554;2023-05-20T02:01:02;101574.53;;;11.28;78.53
46464;BME280;32161;48.148;-1.554;2023-05-20T02:03:30;101574.75;;;11.27;78.57
46464;BME280;32161;48.148;-1.554;2023-05-20T02:05:57;101579.56;;;11.24;78.79
46464;BME280;32161;48.148;-1.554;2023-05-20T02:08:25;101577.06;;;11.23;79.13
46464;BME280;32161;48.148;-1.554;2023-05-20T02:10:53;101588.56;;;11.18;78.96
46464;BME280;32161;48.148;-1.554;2023-05-20T02:13:22;101577.91;;;11.17;79.25
46464;BME280;32161;48.148;-1.554;2023-05-20T02:15:50;101582.94;;;11.20;79.03
46464;BME280;32161;48.148;-1.554;2023-05-20T02:18:18;101578.97;;;11.16;79.43
46464;BME280;32161;48.148;-1.554;2023-05-20T02:20:45;101578.78;;;11.11;79.63
46464;BME280;32161;48.148;-1.554;2023-05-20T02:23:13;101580.03;;;11.15;79.56
46464;BME280;32161;48.148;-1.554;2023-05-20T02:25:40;101589.22;;;11.14;79.70
46464;BME280;32161;48.148;-1.554;2023-05-20T02:28:08;101587.56;;;11.13;79.66
46464;BME280;32161;48.148;-1.554;2023-05-20T02:30:38;101586.31;;;11.09;79.78
46464;BME280;32161;48.148;-1.554;2023-05-20T02:33:05;101579.19;;;11.08;79.92
46464;BME280;32161;48.148;-1.554;2023-05-20T02:35:35;101577.50;;;11.07;80.24
46464;BME280;32161;48.148;-1.554;2023-05-20T02:38:02;101581.69;;;11.09;79.96
46464;BME280;32161;48.148;-1.554;2023-05-20T02:40:30;101575.00;;;11.05;79.80
46464;BME280;32161;48.148;-1.554;2023-05-20T02:42:59;101572.72;;;11.02;80.24
46464;BME280;32161;48.148;-1.554;2023-05-20T02:45:26;101564.34;;;11.04;80.33
46464;BME280;32161;48.148;-1.554;2023-05-20T02:47:55;101565.59;;;11.01;80.65
46464;BME280;32161;48.148;-1.554;2023-05-20T02:50:23;101569.56;;;10.98;80.40
46464;BME280;32161;48.148;-1.554;2023-05-20T02:52:51;101565.19;;;10.91;80.43
46464;BME280;32161;48.148;-1.554;2023-05-20T02:55:18;101562.91;;;10.94;81.20
46464;BME280;32161;48.148;-1.554;2023-05-20T02:57:46;101568.78;;;10.85;81.55
46464;BME280;32161;48.148;-1.554;2023-05-20T03:00:14;101572.75;;;10.82;81.12
46464;BME280;32161;48.148;-1.554;2023-05-20T03:02:41;101569.19;;;10.75;81.86
46464;BME280;32161;48.148;-1.554;2023-05-20T03:05:11;101572.97;;;10.67;82.28
46464;BME280;32161;48.148;-1.554;2023-05-20T03:07:39;101563.56;;;10.70;82.31
46464;BME280;32161;48.148;-1.554;2023-05-20T03:10:08;101562.09;;;10.74;82.53
46464;BME280;32161;48.148;-1.554;2023-05-20T03:12:36;101555.59;;;10.75;82.61
46464;BME280;32161;48.148;-1.554;2023-05-20T03:15:05;101547.88;;;10.79;82.47
46464;BME280;32161;48.148;-1.554;2023-05-20T03:17:33;101542.66;;;10.77;82.58
46464;BME280;32161;48.148;-1.554;2023-05-20T03:20:00;101552.47;;;10.78;82.34
46464;BME280;32161;48.148;-1.554;2023-05-20T03:22:30;101540.13;;;10.75;82.32
46464;BME280;32161;48.148;-1.554;2023-05-20T03:24:57;101538.03;;;10.71;82.31
46464;BME280;32161;48.148;-1.554;2023-05-20T03:27:25;101537.22;;;10.70;82.80
46464;BME280;32161;48.148;-1.554;2023-05-20T03:29:53;101529.06;;;10.64;83.04
46464;BME280;32161;48.148;-1.554;2023-05-20T03:32:20;101536.19;;;10.58;83.05
46464;BME280;32161;48.148;-1.554;2023-05-20T03:34:48;101526.56;;;10.56;82.89
46464;BME280;32161;48.148;-1.554;2023-05-20T03:37:16;101523.44;;;10.59;83.52
46464;BME280;32161;48.148;-1.554;2023-05-20T03:39:45;101523.84;;;10.56;83.36
46464;BME280;32161;48.148;-1.554;2023-05-20T03:42:12;101520.53;;;10.54;83.96
46464;BME280;32161;48.148;-1.554;2023-05-20T03:44:40;101524.91;;;10.48;83.32
46464;BME280;32161;48.148;-1.554;2023-05-20T03:47:07;101520.72;;;10.52;84.04
46464;BME280;32161;48.148;-1.554;2023-05-20T03:49:35;101519.47;;;10.48;84.16
46464;BME280;32161;48.148;-1.554;2023-05-20T03:52:05;101508.19;;;10.44;84.30
46464;BME280;32161;48.148;-1.554;2023-05-20T03:54:32;101516.97;;;10.46;84.54
46464;BME280;32161;48.148;-1.554;2023-05-20T03:57:02;101522.19;;;10.48;84.48
46464;BME280;32161;48.148;-1.554;2023-05-20T03:59:30;101515.69;;;10.49;84.59
46464;BME280;32161;48.148;-1.554;2023-05-20T04:01:57;101517.16;;;10.51;84.65
46464;BME280;32161;48.148;-1.554;2023-05-20T04:04:25;101526.56;;;10.56;84.39
46464;BME280;32161;48.148;-1.554;2023-05-20T04:06:53;101521.34;;;10.54;84.11
46464;BME280;32161;48.148;-1.554;2023-05-20T04:09:21;101519.91;;;10.38;84.13
46464;BME280;32161;48.148;-1.554;2023-05-20T04:11:49;101519.44;;;10.21;85.82
46464;BME280;32161;48.148;-1.554;2023-05-20T04:14:18;101520.91;;;10.24;85.17
46464;BME280;32161;48.148;-1.554;2023-05-20T04:16:45;101522.19;;;10.35;85.52
46464;BME280;32161;48.148;-1.554;2023-05-20T04:19:13;101522.63;;;10.38;85.68
46464;BME280;32161;48.148;-1.554;2023-05-20T04:21:42;101512.78;;;10.31;85.13
46464;BME280;32161;48.148;-1.554;2023-05-20T04:24:10;101514.47;;;10.32;85.64
46464;BME280;32161;48.148;-1.554;2023-05-20T04:26:37;101514.03;;;10.41;85.36
46464;BME280;32161;48.148;-1.554;2023-05-20T04:29:05;101515.31;;;10.39;85.04
46464;BME280;32161;48.148;-1.554;2023-05-20T04:31:34;101520.94;;;10.44;85.36
46464;BME280;32161;48.148;-1.554;2023-05-20T04:34:01;101518.44;;;10.42;85.44
46464;BME280;32161;48.148;-1.554;2023-05-20T04:36:30;101525.94;;;10.40;85.77
46464;BME280;32161;48.148;-1.554;2023-05-20T04:38:57;101518.44;;;10.42;85.68
46464;BME280;32161;48.148;-1.554;2023-05-20T04:41:25;101526.78;;;10.41;86.10
46464;BME280;32161;48.148;-1.554;2023-05-20T04:43:52;101510.28;;;10.42;85.90
46464;BME280;32161;48.148;-1.554;2023-05-20T04:46:24;101506.94;;;10.40;85.92
46464;BME280;32161;48.148;-1.554;2023-05-20T04:48:53;101506.31;;;10.38;86.32
46464;BME280;32161;48.148;-1.554;2023-05-20T04:51:21;101509.44;;;10.35;86.60
46464;BME280;32161;48.148;-1.554;2023-05-20T04:53:49;101506.31;;;10.38;86.50
46464;BME280;32161;48.148;-1.554;2023-05-20T04:56:17;101514.47;;;10.38;86.75
46464;BME280;32161;48.148;-1.554;2023-05-20T04:58:44;101502.53;;;10.39;87.00
46464;BME280;32161;48.148;-1.554;2023-05-20T05:01:12;101501.50;;;10.40;86.99
46464;BME280;32161;48.148;-1.554;2023-05-20T05:03:39;101492.28;;;10.41;87.29
46464;BME280;32161;48.148;-1.554;2023-05-20T05:06:08;101500.88;;;10.32;87.79
46464;BME280;32161;48.148;-1.554;2023-05-20T05:08:36;101504.84;;;10.36;88.14
46464;BME280;32161;48.148;-1.554;2023-05-20T05:11:04;101503.38;;;10.33;88.57
46464;BME280;32161;48.148;-1.554;2023-05-20T05:13:32;101507.34;;;10.37;88.81
46464;BME280;32161;48.148;-1.554;2023-05-20T05:16:01;101506.94;;;10.40;89.07
46464;BME280;32161;48.148;-1.554;2023-05-20T05:18:29;101503.56;;;10.45;89.22
46464;BME280;32161;48.148;-1.554;2023-05-20T05:21:00;101508.78;;;10.53;88.89
46464;BME280;32161;48.148;-1.554;2023-05-20T05:23:30;101509.19;;;10.57;88.89
46464;BME280;32161;48.148;-1.554;2023-05-20T05:25:58;101501.50;;;10.54;88.92
46464;BME280;32161;48.148;-1.554;2023-05-20T05:28:26;101506.47;;;10.57;89.18
46464;BME280;32161;48.148;-1.554;2023-05-20T05:30:54;101493.94;;;10.62;88.55
46464;BME280;32161;48.148;-1.554;2023-05-20T05:33:22;101499.16;;;10.64;88.89
46464;BME280;32161;48.148;-1.554;2023-05-20T05:35:50;101497.50;;;10.63;89.21
46464;BME280;32161;48.148;-1.554;2023-05-20T05:38:17;101508.31;;;10.76;89.02
46464;BME280;32161;48.148;-1.554;2023-05-20T05:40:46;101502.50;;;10.66;89.06
46464;BME280;32161;48.148;-1.554;2023-05-20T05:43:14;101502.09;;;10.69;90.09
46464;BME280;32161;48.148;-1.554;2023-05-20T05:45:41;101500.38;;;10.74;89.96
46464;BME280;32161;48.148;-1.554;2023-05-20T05:48:09;101491.16;;;10.82;90.40
46464;BME280;32161;48.148;-1.554;2023-05-20T05:50:37;101498.06;;;10.85;89.82
46464;BME280;32161;48.148;-1.554;2023-05-20T05:53:04;101500.56;;;10.93;90.21
46464;BME280;32161;48.148;-1.554;2023-05-20T05:55:32;101500.13;;;10.96;90.48
46464;BME280;32161;48.148;-1.554;2023-05-20T05:58:01;101494.63;;;11.16;90.37
46464;BME280;32161;48.148;-1.554;2023-05-20T06:00:28;101495.88;;;11.07;90.67
46464;BME280;32161;48.148;-1.554;2023-05-20T06:02:56;101487.06;;;11.18;90.37
46464;BME280;32161;48.148;-1.554;2023-05-20T06:05:24;101496.25;;;11.30;90.79
46464;BME280;32161;48.148;-1.554;2023-05-20T06:07:51;101501.16;;;11.46;90.68
46464;BME280;32161;48.148;-1.554;2023-05-20T06:10:19;101488.16;;;11.48;90.68
46464;BME280;32161;48.148;-1.554;2023-05-20T06:12:46;101495.19;;;11.63;90.57
46464;BME280;32161;48.148;-1.554;2023-05-20T06:15:16;101499.53;;;11.77;90.25
46464;BME280;32161;48.148;-1.554;2023-05-20T06:17:43;101497.63;;;11.84;89.35
46464;BME280;32161;48.148;-1.554;2023-05-20T06:20:12;101477.22;;;11.93;89.88
46464;BME280;32161;48.148;-1.554;2023-05-20T06:22:39;101476.91;;;12.08;89.61
46464;BME280;32161;48.148;-1.554;2023-05-20T06:25:09;101480.06;;;12.05;88.37
46464;BME280;32161;48.148;-1.554;2023-05-20T06:27:37;101477.44;;;12.17;88.36
46464;BME280;32161;48.148;-1.554;2023-05-20T06:30:06;101478.22;;;12.24;88.25
46464;BME280;32161;48.148;-1.554;2023-05-20T06:32:35;101477.75;;;12.34;87.70
46464;BME280;32161;48.148;-1.554;2023-05-20T06:35:04;101478.78;;;12.33;87.30
46464;BME280;32161;48.148;-1.554;2023-05-20T06:37:32;101474.63;;;12.30;87.57
46464;BME280;32161;48.148;-1.554;2023-05-20T06:39:59;101482.91;;;12.42;87.45
46464;BME280;32161;48.148;-1.554;2023-05-20T06:42:27;101485.53;;;12.49;nan
46464;BME280;32161;48.148;-1.554;2023-05-20T06:44:54;101481.31;;;12.53;87.01
46464;BME280;32161;48.148;-1.554;2023-05-20T06:47:22;101480.56;;;12.64;86.30
46464;BME280;32161;48.148;-1.554;2023-05-20T06:49:51;101484.97;;;12.65;86.36
46464;BME280;32161;48.148;-1.554;2023-05-20T06:52:18;101488.81;;;12.76;86.30
46464;BME280;32161;48.148;-1.554;2023-05-20T06:54:46;101471.81;;;12.80;86.23
46464;BME280;32161;48.148;-1.554;2023-05-20T06:57:14;101474.53;;;12.80;86.26
46464;BME280;32161;48.148;-1.554;2023-05-20T06:59:41;101474.88;;;13.02;85.65
46464;BME280;32161;48.148;-1.554;2023-05-20T07:02:10;101481.28;;;12.96;85.47
46464;BME280;32161;48.148;-1.554;2023-05-20T07:04:38;101473.75;;;13.10;85.09
46464;BME280;32161;48.148;-1.554;2023-05-20T07:07:07;101467.53;;;13.03;84.92
46464;BME280;32161;48.148;-1.554;2023-05-20T07:09:34;101473.59;;;13.05;85.42
46464;BME280;32161;48.148;-1.554;2023-05-20T07:12:02;101472.31;;;13.07;84.75
46464;BME280;32161;48.148;-1.554;2023-05-20T07:14:30;101468.28;;;13.10;84.78
46464;BME280;32161;48.148;-1.554;2023-05-20T07:16:58;101471.06;;;13.22;84.84
46464;BME280;32161;48.148;-1.554;2023-05-20T07:19:26;101474.38;;;13.30;84.58
46464;BME280;32161;48.148;-1.554;2023-05-20T07:21:53;101471.91;;;13.40;84.89
46464;BME280;32161;48.148;-1.554;2023-05-20T07:24:22;101469.44;;;13.51;84.62
46464;BME280;32161;48.148;-1.554;2023-05-20T07:26:50;101460.94;;;13.59;84.53
46464;BME280;32161;48.148;-1.554;2023-05-20T07:29:18;101461.22;;;13.69;84.64
46464;BME280;32161;48.148;-1.554;2023-05-20T07:31:45;101464.41;;;13.66;84.68
46464;BME280;32161;48.148;-1.554;2023-05-20T07:34:13;101469.31;;;13.87;85.36
46464;BME280;32161;48.148;-1.554;2023-05-20T07:36:40;101463.53;;;14.07;84.28
46464;BME280;32161;48.148;-1.554;2023-05-20T07:39:08;101462.47;;;14.20;83.25
46464;BME280;32161;48.148;-1.554;2023-05-20T07:41:38;101460.56;;;14.32;83.13
46464;BME280;32161;48.148;-1.554;2023-05-20T07:44:05;101454.75;;;14.40;82.54
46464;BME280;32161;48.148;-1.554;2023-05-20T07:46:34;101456.31;;;14.60;82.25
46464;BME280;32161;48.148;-1.554;2023-05-20T07:49:03;101446.88;;;14.79;82.16
46464;BME280;32161;48.148;-1.554;2023-05-20T07:51:30;101451.28;;;14.92;81.89
46464;BME280;32161;48.148;-1.554;2023-05-20T07:53:58;101443.94;;;15.09;79.55
46464;BME280;32161;48.148;-1.554;2023-05-20T07:56:26;101447.63;;;15.15;80.63
46464;BME280;32161;48.148;-1.554;2023-05-20T07:58:58;101441.50;;;15.25;81.02
46464;BME280;32161;48.148;-1.554;2023-05-20T08:01:26;101438.09;;;15.46;80.03
46464;BME280;32161;48.148;-1.554;2023-05-20T08:03:54;101444.34;;;15.58;79.34
46464;BME280;32161;48.148;-1.554;2023-05-20T08:06:22;101436.13;;;15.58;79.60
46464;BME280;32161;48.148;-1.554;2023-05-20T08:08:50;101440.91;;;15.80;78.95
46464;BME280;32161;48.148;-1.554;2023-05-20T08:11:19;101437.31;;;15.79;78.67
46464;BME280;32161;48.148;-1.554;2023-05-20T08:13:47;101441.66;;;15.92;78.09
46464;BME280;32161;48.148;-1.554;2023-05-20T08:16:16;101435.50;;;16.19;76.98
46464;BME280;32161;48.148;-1.554;2023-05-20T08:18:44;101435.31;;;16.25;76.71
46464;BME280;32161;48.148;-1.554;2023-05-20T08:21:11;101438.72;;;16.32;77.13
46464;BME280;32161;48.148;-1.554;2023-05-20T08:23:40;101434.31;;;16.31;76.58
46464;BME280;32161;48.148;-1.554;2023-05-20T08:26:08;101433.31;;;16.38;76.29
46464;BME280;32161;48.148;-1.554;2023-05-20T08:28:36;101441.47;;;16.32;75.93
46464;BME280;32161;48.148;-1.554;2023-05-20T08:31:04;101440.63;;;16.32;74.81
46464;BME280;32161;48.148;-1.554;2023-05-20T08:33:33;101438.50;;;16.34;75.54
46464;BME280;32161;48.148;-1.554;2023-05-20T08:36:01;101439.66;;;16.38;76.01
46464;BME280;32161;48.148;-1.554;2023-05-20T08:38:29;101429.56;;;16.44;75.69
46464;BME280;32161;48.148;-1.554;2023-05-20T08:40:57;101434.13;;;16.55;75.23
46464;BME280;32161;48.148;-1.554;2023-05-20T08:43:25;101436.28;;;16.53;75.88
46464;BME280;32161;48.148;-1.554;2023-05-20T08:45:53;101438.72;;;16.71;75.22
46464;BME280;32161;48.148;-1.554;2023-05-20T08:48:25;101434.38;;;16.92;74.23
46464;BME280;32161;48.148;-1.554;2023-05-20T08:50:56;101431.50;;;17.04;75.13
46464;BME280;32161;48.148;-1.554;2023-05-20T08:53:25;101438.25;;;17.18;75.96
46464;BME280;32161;48.148;-1.554;2023-05-20T08:55:55;101430.09;;;17.28;75.71
46464;BME280;32161;48.148;-1.554;2023-05-20T08:58:24;101432.69;;;17.40;74.62
46464;BME280;32161;48.148;-1.554;2023-05-20T09:00:53;101433.31;;;17.47;73.45
46464;BME280;32161;48.148;-1.554;2023-05-20T09:03:21;101422.75;;;17.61;74.67
46464;BME280;32161;48.148;-1.554;2023-05-20T09:05:49;101426.22;;;17.78;74.74
46464;BME280;32161;48.148;-1.554;2023-05-20T09:08:19;101415.22;;;17.78;73.80
46464;BME280;32161;48.148;-1.554;2023-05-20T09:10:51;101413.88;;;17.81;73.89
46464;BME280;32161;48.148;-1.554;2023-05-20T09:13:20;101404.94;;;17.96;73.07
46464;BME280;32161;48.148;-1.554;2023-05-20T09:15:47;101400.03;;;18.03;72.51
46464;BME280;32161;48.148;-1.554;2023-05-20T09:18:15;101406.09;;;18.05;72.70
46464;BME280;32161;48.148;-1.554;2023-05-20T09:20:49;101405.34;;;17.83;72.26
46464;BME280;32161;48.148;-1.554;2023-05-20T09:23:20;101400.50;;;17.95;72.81
46464;BME280;32161;48.148;-1.554;2023-05-20T09:25:49;101403.03;;;18.01;71.32
46464;BME280;32161;48.148;-1.554;2023-05-20T09:28:19;101404.16;;;18.05;72.37
46464;BME280;32161;48.148;-1.554;2023-05-20T09:30:49;101406.97;;;18.11;72.37
46464;BME280;32161;48.148;-1.554;2023-05-20T09:33:17;101405.88;;;18.12;72.40
46464;BME280;32161;48.148;-1.554;2023-05-20T09:35:45;101401.78;;;18.19;72.23
46464;BME280;32161;48.148;-1.554;2023-05-20T09:38:14;101407.09;;;18.31;70.24
46464;BME280;32161;48.148;-1.554;2023-05-20T09:40:44;101409.34;;;18.44;69.19
46464;BME280;32161;48.148;-1.554;2023-05-20T09:43:12;101406.38;;;18.51;70.21
46464;BME280;32161;48.148;-1.554;2023-05-20T09:45:40;101403.09;;;18.59;70.63
46464;BME280;32161;48.148;-1.554;2023-05-20T09:48:09;101406.44;;;18.61;69.17
46464;BME280;32161;48.148;-1.554;2023-05-20T09:50:38;101405.91;;;18.69;69.26
46464;BME280;32161;48.148;-1.554;2023-05-20T09:53:08;101410.56;;;18.64;70.45
46464;BME280;32161;48.148;-1.554;2023-05-20T09:55:37;101401.47;;;18.58;68.56
46464;BME280;32161;48.148;-1.554;2023-05-20T09:58:09;101394.34;;;18.67;68.49
46464;BME280;32161;48.148;-1.554;2023-05-20T10:00:39;101393.88;;;18.81;69.37
46464;BME280;32161;48.148;-1.554;2023-05-20T10:03:06;101388.97;;;18.98;70.88
46464;BME280;32161;48.148;-1.554;2023-05-20T10:05:37;101381.59;;;19.29;66.00
46464;BME280;32161;48.148;-1.554;2023-05-20T10:08:29;101379.69;;;19.30;67.54
46464;BME280;32161;48.148;-1.554;2023-05-20T10:11:11;101371.16;;;19.41;69.49
46464;BME280;32161;48.148;-1.554;2023-05-20T10:14:08;101383.00;;;19.37;69.31
46464;BME280;32161;48.148;-1.554;2023-05-20T10:16:47;101373.38;;;19.60;68.83
46464;BME280;32161;48.148;-1.554;2023-05-20T10:19:27;101365.94;;;19.75;66.67
46464;BME280;32161;48.148;-1.554;2023-05-20T10:22:01;101369.81;;;19.95;63.66
46464;BME280;32161;48.148;-1.554;2023-05-20T10:24:30;101375.84;;;20.02;65.42
46464;BME280;32161;48.148;-1.554;2023-05-20T10:27:01;101370.31;;;20.22;67.70
46464;BME280;32161;48.148;-1.554;2023-05-20T10:29:42;101373.84;;;20.38;65.47
46464;BME280;32161;48.148;-1.554;2023-05-20T10:32:10;101366.94;;;20.51;63.59
46464;BME280;32161;48.148;-1.554;2023-05-20T10:34:45;101371.34;;;20.57;63.54
46464;BME280;32161;48.148;-1.554;2023-05-20T10:37:24;101370.19;;;20.63;62.73
46464;BME280;32161;48.148;-1.554;2023-05-20T10:40:05;101366.88;;;20.66;61.48
46464;BME280;32161;48.148;-1.554;2023-05-20T10:42:33;101370.69;;;20.81;61.27
46464;BME280;32161;48.148;-1.554;2023-05-20T10:45:06;101365.69;;;20.88;61.83
46464;BME280;32161;48.148;-1.554;2023-05-20T10:47:35;101366.69;;;21.02;60.03
46464;BME280;32161;48.148;-1.554;2023-05-20T10:50:04;101365.09;;;20.96;61.70
46464;BME280;32161;48.148;-1.554;2023-05-20T10:52:35;101355.69;;;20.97;63.49
46464;BME280;32161;48.148;-1.554;2023-05-20T10:55:03;101356.72;;;21.06;62.31
46464;BME280;32161;48.148;-1.554;2023-05-20T10:57:31;101352.22;;;21.20;62.46
46464;BME280;32161;48.148;-1.554;2023-05-20T11:00:03;101354.91;;;21.36;62.20
46464;BME280;32161;48.148;-1.554;2023-05-20T11:02:37;101352.38;;;21.39;61.64
46464;BME280;32161;48.148;-1.554;2023-05-20T11:05:05;101348.47;;;21.45;59.37
46464;BME280;32161;48.148;-1.554;2023-05-20T11:07:33;101337.66;;;21.49;58.64
46464;BME280;32161;48.148;-1.554;2023-05-20T11:10:00;101343.59;;;21.66;61.61
46464;BME280;32161;48.148;-1.554;2023-05-20T11:12:28;101348.50;;;21.75;60.15
46464;BME280;32161;48.148;-1.554;2023-05-20T11:14:56;101342.94;;;21.80;58.84
46464;BME280;32161;48.148;-1.554;2023-05-20T11:17:25;101341.41;;;21.92;58.58
46464;BME280;32161;48.148;-1.554;2023-05-20T11:19:52;101333.59;;;22.00;58.53
46464;BME280;32161;48.148;-1.554;2023-05-20T11:22:20;101335.88;;;21.92;57.36
46464;BME280;32161;48.148;-1.554;2023-05-20T11:24:48;101345.94;;;21.83;58.24
46464;BME280;32161;48.148;-1.554;2023-05-20T11:27:15;101347.41;;;21.76;59.56
46464;BME280;32161;48.148;-1.554;2023-05-20T11:29:43;101346.78;;;21.79;58.69
46464;BME280;32161;48.148;-1.554;2023-05-20T11:32:11;101324.31;;;21.85;57.77
46464;BME280;32161;48.148;-1.554;2023-05-20T11:34:40;101332.94;;;21.84;55.24
46464;BME280;32161;48.148;-1.554;2023-05-20T11:37:09;101335.72;;;21.79;57.41
46464;BME280;32161;48.148;-1.554;2023-05-20T11:39:37;101335.16;;;21.82;60.64
46464;BME280;32161;48.148;-1.554;2023-05-20T11:42:05;101326.94;;;21.72;59.31
46464;BME280;32161;48.148;-1.554;2023-05-20T11:44:33;101318.03;;;21.80;57.19
46464;BME280;32161;48.148;-1.554;2023-05-20T11:47:01;101318.63;;;21.72;56.35
46464;BME280;32161;48.148;-1.554;2023-05-20T11:49:29;101312.13;;;21.57;57.03
46464;BME280;32161;48.148;-1.554;2023-05-20T11:52:08;101315.78;;;21.53;56.29
46464;BME280;32161;48.148;-1.554;2023-05-20T11:54:37;101307.88;;;21.41;59.01
46464;BME280;32161;48.148;-1.554;2023-05-20T11:57:05;101302.22;;;21.51;58.63
46464;BME280;32161;48.148;-1.554;2023-05-20T11:59:33;101297.94;;;21.64;58.53
46464;BME280;32161;48.148;-1.554;2023-05-20T12:02:00;101297.53;;;21.81;58.07
46464;BME280;32161;48.148;-1.554;2023-05-20T12:04:28;101300.78;;;21.88;53.99
46464;BME280;32161;48.148;-1.554;2023-05-20T12:06:56;101288.03;;;21.87;53.23
46464;BME280;32161;48.148;-1.554;2023-05-20T12:09:25;101287.38;;;21.71;55.21
46464;BME280;32161;48.148;-1.554;2023-05-20T12:11:53;101288.25;;;21.66;56.79
46464;BME280;32161;48.148;-1.554;2023-05-20T12:14:21;101296.38;;;21.58;56.00
46464;BME280;32161;48.148;-1.554;2023-05-20T12:16:49;101294.47;;;21.53;56.06
46464;BME280;32161;48.148;-1.554;2023-05-20T12:19:18;101280.50;;;21.68;57.82
46464;BME280;32161;48.148;-1.554;2023-05-20T12:21:46;101285.88;;;21.84;59.90
46464;BME280;32161;48.148;-1.554;2023-05-20T12:24:15;101296.78;;;21.99;54.30
46464;BME280;32161;48.148;-1.554;2023-05-20T12:26:44;101296.81;;;21.94;52.27
46464;BME280;32161;48.148;-1.554;2023-05-20T12:29:11;101288.47;;;21.99;52.21
46464;BME280;32161;48.148;-1.554;2023-05-20T12:31:39;101291.72;;;22.06;53.73
46464;BME280;32161;48.148;-1.554;2023-05-20T12:34:06;101294.50;;;22.30;52.92
46464;BME280;32161;48.148;-1.554;2023-05-20T12:36:34;101291.75;;;22.30;52.55
46464;BME280;32161;48.148;-1.554;2023-05-20T12:39:02;101289.13;;;22.39;51.98
46464;BME280;32161;48.148;-1.554;2023-05-20T12:41:30;101301.63;;;22.36;52.32
46464;BME280;32161;48.148;-1.554;2023-05-20T12:43:59;101289.41;;;22.18;52.36
46464;BME280;32161;48.148;-1.554;2023-05-20T12:46:27;101281.41;;;22.12;53.32
46464;BME280;32161;48.148;-1.554;2023-05-20T12:48:54;101286.13;;;22.11;52.27